»·PEaware :: N122SQ KPOC-KSBP

N122SQ :: KPOC-KSBP

FLIGHT INFORMATION

Flight Status: Arrived
Operator: Privately registered:
United States
More flights under this callsign
Pilot: Gabor H. (24209)
Aircraft: CIRRUS SR-22 TURBO
(S22T)
More flights by this aircraft type
Origin: KPOC Brackett
United States
Destination: KSBP San Luis Co Regl
United States
More flights between these airports :: More routes between these airports
Route:
File this flight plan on PilotEdge
Remarks:
Altitude:
(Current/Filed)
0ft
Speed:
(Current/Filed)
0kts
Departed: 21-Jul-23 09:02 AM
Arrived: 21-Jul-23 10:00 AM
Distance/Time
Traveled:
157nm/0:58
Distance/Time
To Go:
Arrived

Flight Plot

Page will automatically refresh every two minutes.

Flight plan parsing failed; only flown route is shown


Map Options




Map Legend


Flown Route
Filed Route
Departure Airport
Arrival Airport
Navaid (VOR, NDB)
Fix

Horizontal Profiles

Position Reports

Time Latitude Longitude Heading Altitude Ground
Speed
21-Jul-23 08:55 34.094146 -117.784805 113 990ft 0kts
21-Jul-23 08:56 34.094146 -117.784805 113 990ft 0kts
21-Jul-23 08:57 34.094142 -117.784795 118 990ft 1kts
21-Jul-23 08:58 34.092575 -117.782587 90 994ft 21kts
21-Jul-23 08:59 34.092232 -117.775461 92 1014ft 11kts
21-Jul-23 09:00 34.092116 -117.774807 158 1015ft 8kts
21-Jul-23 09:01 34.093656 -117.796582 279 1520ft 109kts
21-Jul-23 09:02 34.114186 -117.812940 339 3056ft 108kts
21-Jul-23 09:03 34.131177 -117.847142 291 4075ft 138kts
21-Jul-23 09:04 34.145838 -117.890573 291 5081ft 140kts
21-Jul-23 09:05 34.157468 -117.935120 287 6108ft 140kts
21-Jul-23 09:06 34.173558 -117.978124 295 7098ft 142kts
21-Jul-23 09:07 34.191397 -118.021238 294 8083ft 144kts
21-Jul-23 09:08 34.210415 -118.067133 295 8483ft 166kts
21-Jul-23 09:09 34.231533 -118.118096 295 8473ft 170kts
21-Jul-23 09:10 34.252707 -118.169334 295 8479ft 170kts
21-Jul-23 09:11 34.273879 -118.220623 295 8489ft 171kts
21-Jul-23 09:12 34.295077 -118.272066 295 8495ft 171kts
21-Jul-23 09:13 34.316215 -118.323381 295 8525ft 171kts
21-Jul-23 09:14 34.337480 -118.375068 296 8529ft 171kts
21-Jul-23 09:15 34.358682 -118.426752 295 8534ft 172kts
21-Jul-23 09:16 34.380038 -118.478886 296 8505ft 172kts
21-Jul-23 09:17 34.401326 -118.530938 296 8497ft 172kts
21-Jul-23 09:18 34.422635 -118.583146 296 8495ft 173kts
21-Jul-23 09:19 34.443876 -118.635232 296 8498ft 172kts
21-Jul-23 09:20 34.465119 -118.687410 295 8499ft 172kts
21-Jul-23 09:21 34.486269 -118.739451 295 8497ft 172kts
21-Jul-23 09:22 34.507318 -118.791325 296 8502ft 171kts
21-Jul-23 09:23 34.528422 -118.843414 296 8500ft 172kts
21-Jul-23 09:24 34.549566 -118.895680 296 8499ft 172kts
21-Jul-23 09:25 34.570612 -118.947786 296 8504ft 172kts
21-Jul-23 09:27 34.591769 -119.000261 296 8529ft 174kts
21-Jul-23 09:28 34.613219 -119.053532 296 8527ft 175kts
21-Jul-23 09:29 34.634624 -119.106787 296 8527ft 176kts
21-Jul-23 09:30 34.655582 -119.159012 296 8519ft 163kts
21-Jul-23 09:31 34.674059 -119.205165 296 8538ft 159kts
21-Jul-23 09:32 34.694450 -119.256068 296 8509ft 172kts
21-Jul-23 09:33 34.715411 -119.308509 296 8508ft 173kts
21-Jul-23 09:34 34.736175 -119.360565 296 8505ft 169kts
21-Jul-23 09:35 34.756749 -119.412220 296 8504ft 170kts
21-Jul-23 09:36 34.777283 -119.463856 296 8502ft 170kts
21-Jul-23 09:37 34.797967 -119.515960 296 8540ft 172kts
21-Jul-23 09:38 34.818802 -119.568535 296 8543ft 172kts
21-Jul-23 09:39 34.839617 -119.621101 296 8546ft 172kts
21-Jul-23 09:40 34.860483 -119.673899 296 8550ft 172kts
21-Jul-23 09:41 34.881204 -119.726415 296 8554ft 172kts
21-Jul-23 09:42 34.901942 -119.779064 296 8554ft 172kts
21-Jul-23 09:43 34.922746 -119.831970 296 8554ft 173kts
21-Jul-23 09:44 34.943408 -119.884583 296 8552ft 170kts
21-Jul-23 09:45 34.963545 -119.935957 296 8553ft 167kts
21-Jul-23 09:46 34.983582 -119.987163 296 8554ft 167kts
21-Jul-23 09:47 35.003634 -120.038477 297 8509ft 165kts
21-Jul-23 09:48 35.023291 -120.088835 297 8497ft 165kts
21-Jul-23 09:49 35.042901 -120.139285 297 8491ft 165kts
21-Jul-23 09:50 35.063596 -120.192456 297 7986ft 186kts
21-Jul-23 09:51 35.086493 -120.251412 297 6952ft 190kts
21-Jul-23 09:51 35.105232 -120.299737 297 6109ft 188kts
21-Jul-23 09:53 35.124826 -120.369702 287 4802ft 188kts
21-Jul-23 09:54 35.138788 -120.430273 293 3673ft 180kts
21-Jul-23 09:55 35.155634 -120.486473 292 2738ft 166kts
21-Jul-23 09:55 35.170786 -120.527535 305 2069ft 156kts
21-Jul-23 09:56 35.196531 -120.568368 306 1511ft 136kts
21-Jul-23 09:57 35.215620 -120.602164 304 1232ft 102kts
21-Jul-23 09:58 35.230467 -120.628972 303 380ft 88kts
21-Jul-23 10:00 35.237669 -120.642975 221 189ft 0kts
21-Jul-23 10:00 35.237435 -120.646744 272 173ft 21kts
21-Jul-23 10:01 35.238411 -120.648214 110 168ft 0kts
21-Jul-23 10:02 35.238411 -120.648214 110 168ft 0kts
21-Jul-23 10:03 35.238411 -120.648214 110 168ft 0kts
21-Jul-23 10:04 35.238411 -120.648214 110 168ft 0kts
21-Jul-23 10:05 35.238411 -120.648214 110 168ft 0kts

Navigation Log

Ident Type
Flight plan parsing failed, navigation log unavailable